Time;durP1;ratioP1;P1;durP2;ratioP2;P2;SDS_P1;SDS_P2;PMS_P1;PMS_P2;Temp;Humidity;BMP_temperature;BMP_pressure;BME280_temperature;BME280_humidity;BME280_pressure;Samples;Min_cycle;Max_cycle;Signal;HPM_P1;HPM_P2
2022/02/06 00:01:12;;;;;;;;;;;7.30;99.90;;;;;;5124717;27;19918;-74
2022/02/06 00:03:40;;;;;;;;;;;7.40;99.90;;;;;;5125244;27;20314;-70
2022/02/06 00:06:07;;;;;;;;;;;7.40;99.90;;;;;;5122905;27;19940;-70
2022/02/06 00:08:33;;;;;;;;;;;7.30;99.90;;;;;;5118227;27;19921;-72
2022/02/06 00:10:58;;;;;;;;;;;7.30;99.90;;;;;;5120650;27;20586;-71
2022/02/06 00:13:24;;;;;;;;;;;7.40;99.90;;;;;;5125628;27;19916;-72
2022/02/06 00:15:49;;;;;;;;;;;7.30;99.90;;;;;;5128007;27;19926;-71
2022/02/06 00:18:15;;;;;;;;;;;7.30;99.90;;;;;;5112013;27;19980;-72
2022/02/06 00:20:50;;;;;;;;;;;7.30;99.90;;;;;;5126551;27;19919;-71
2022/02/06 00:23:29;;;;;;;;;;;7.30;99.90;;;;;;5127450;27;20341;-71
2022/02/06 00:26:13;;;;;;;;;;;7.20;99.90;;;;;;5119652;27;19938;-71
2022/02/06 00:28:58;;;;;;;;;;;7.20;99.90;;;;;;5128071;27;19912;-74
2022/02/06 00:31:47;;;;;;;;;;;7.20;99.90;;;;;;5117343;27;19911;-72
2022/02/06 00:39:13;;;;;;;;;;;7.30;99.90;;;;;;5117491;27;19911;-72
2022/02/06 00:41:41;;;;;;;;;;;7.30;99.90;;;;;;5118077;27;19920;-71
2022/02/06 00:44:15;;;;;;;;;;;7.30;99.90;;;;;;5115476;27;19985;-70
2022/02/06 00:46:41;;;;;;;;;;;7.20;99.90;;;;;;5113599;27;19919;-72
2022/02/06 00:49:18;;;;;;;;;;;7.30;99.90;;;;;;5123527;27;20386;-69
2022/02/06 00:51:56;;;;;;;;;;;7.40;99.90;;;;;;5122133;27;20357;-71
2022/02/06 00:54:21;;;;;;;;;;;7.40;99.90;;;;;;5128475;27;19918;-72
2022/02/06 00:56:47;;;;;;;;;;;7.40;99.90;;;;;;5119976;27;19912;-70
2022/02/06 00:59:12;;;;;;;;;;;7.40;99.90;;;;;;5121925;27;19960;-70
2022/02/06 01:01:41;;;;;;;;;;;7.40;99.90;;;;;;5125864;27;20272;-71
2022/02/06 01:04:11;;;;;;;;;;;7.50;99.90;;;;;;5116008;27;19915;-72
2022/02/06 01:06:37;;;;;;;;;;;7.40;99.90;;;;;;5115464;27;20418;-71
2022/02/06 01:09:03;;;;;;;;;;;7.40;99.90;;;;;;5119952;27;19912;-70
2022/02/06 01:11:30;;;;;;;;;;;7.30;99.90;;;;;;5122256;27;19911;-72
2022/02/06 01:16:41;;;;;;;;;;;7.00;99.90;;;;;;5125314;27;19912;-70
2022/02/06 01:19:13;;;;;;;;;;;6.90;99.90;;;;;;5123674;27;19994;-70
2022/02/06 01:29:23;;;;;;;;;;;6.80;99.90;;;;;;5126212;27;20361;-70
2022/02/06 01:34:18;;;;;;;;;;;6.60;99.90;;;;;;5121624;27;19912;-71
2022/02/06 01:37:02;;;;;;;;;;;6.50;99.90;;;;;;5116541;27;19911;-71
2022/02/06 01:39:53;;;;;;;;;;;6.40;99.90;;;;;;5119324;27;19918;-70
2022/02/06 01:42:33;;;;;;;;;;;6.30;99.90;;;;;;5121042;27;19920;-71
2022/02/06 02:12:14;;;;;;;;;;;6.10;99.90;;;;;;5116963;27;19938;-71
2022/02/06 02:17:41;;;;;;;;;;;5.90;99.90;;;;;;5117780;27;19961;-71
2022/02/06 02:30:59;;;;;;;;;;;6.00;99.90;;;;;;5086606;28;19931;-70
2022/02/06 02:45:10;;;;;;;;;;;6.60;99.90;;;;;;5087840;28;19955;-70
2022/02/06 02:47:37;;;;;;;;;;;6.80;99.90;;;;;;5114993;28;19922;-70
2022/02/06 02:50:10;;;;;;;;;;;6.80;99.90;;;;;;5110930;28;19965;-71
2022/02/06 02:58:18;;;;;;;;;;;6.70;99.90;;;;;;5124864;28;20005;-72
2022/02/06 03:05:50;;;;;;;;;;;6.70;99.90;;;;;;5111249;28;19981;-71
2022/02/06 03:08:15;;;;;;;;;;;6.70;99.90;;;;;;5129191;28;19931;-71
2022/02/06 03:10:42;;;;;;;;;;;6.70;99.90;;;;;;5129181;27;20284;-70
2022/02/06 03:13:11;;;;;;;;;;;6.80;99.90;;;;;;5125817;28;20365;-72
2022/02/06 03:18:05;;;;;;;;;;;6.70;99.90;;;;;;5133688;27;20002;-70
2022/02/06 03:20:33;;;;;;;;;;;6.70;99.90;;;;;;5114728;27;19907;-72
2022/02/06 03:23:03;;;;;;;;;;;6.70;99.90;;;;;;5130003;27;19947;-70
2022/02/06 03:25:29;;;;;;;;;;;6.70;99.90;;;;;;5115419;27;20183;-70
2022/02/06 03:27:54;;;;;;;;;;;6.60;99.90;;;;;;5130058;27;19981;-72
2022/02/06 03:30:21;;;;;;;;;;;6.50;99.90;;;;;;5122834;27;21316;-71
2022/02/06 03:32:46;;;;;;;;;;;6.40;99.90;;;;;;5115757;27;19953;-72
2022/02/06 03:35:12;;;;;;;;;;;6.40;99.90;;;;;;5130686;27;20343;-71
2022/02/06 03:37:40;;;;;;;;;;;6.30;99.90;;;;;;5125378;27;19947;-71
2022/02/06 03:40:07;;;;;;;;;;;6.30;99.90;;;;;;5129453;27;19962;-72
2022/02/06 03:42:51;;;;;;;;;;;6.20;99.90;;;;;;5133325;27;20327;-71
2022/02/06 03:45:20;;;;;;;;;;;6.30;99.90;;;;;;5122369;27;19908;-71
2022/02/06 03:47:51;;;;;;;;;;;6.30;99.90;;;;;;5129776;27;19924;-71
2022/02/06 03:50:18;;;;;;;;;;;6.20;99.90;;;;;;5127136;27;20002;-71
2022/02/06 03:52:47;;;;;;;;;;;6.20;99.90;;;;;;5122727;27;19919;-71
2022/02/06 03:55:19;;;;;;;;;;;6.20;99.90;;;;;;5132019;27;19911;-73
2022/02/06 03:57:48;;;;;;;;;;;6.20;99.90;;;;;;5121072;27;19944;-71
2022/02/06 04:00:14;;;;;;;;;;;6.20;99.90;;;;;;5121299;27;19908;-71
2022/02/06 04:02:40;;;;;;;;;;;6.20;99.90;;;;;;5119968;27;20000;-70
2022/02/06 04:05:05;;;;;;;;;;;6.20;99.90;;;;;;5133635;27;20040;-72
2022/02/06 04:07:31;;;;;;;;;;;6.20;99.90;;;;;;5131390;27;20229;-71
2022/02/06 04:09:58;;;;;;;;;;;6.20;99.90;;;;;;5120122;27;19912;-71
2022/02/06 04:12:24;;;;;;;;;;;6.10;99.90;;;;;;5128112;27;19954;-72
2022/02/06 04:15:05;;;;;;;;;;;6.10;99.90;;;;;;5131723;27;20384;-72
2022/02/06 04:17:36;;;;;;;;;;;6.00;99.90;;;;;;5125713;27;19916;-71
2022/02/06 04:20:02;;;;;;;;;;;6.10;99.90;;;;;;5114110;27;20413;-71
2022/02/06 04:22:28;;;;;;;;;;;6.10;99.90;;;;;;5134084;27;19934;-71
2022/02/06 04:24:53;;;;;;;;;;;6.10;99.90;;;;;;5123781;27;19915;-72
2022/02/06 04:27:19;;;;;;;;;;;6.10;99.90;;;;;;5123033;27;20502;-69
2022/02/06 04:29:47;;;;;;;;;;;6.00;99.90;;;;;;5120114;27;19953;-72
2022/02/06 04:32:12;;;;;;;;;;;6.00;99.90;;;;;;5122865;27;19981;-74
2022/02/06 04:34:38;;;;;;;;;;;6.00;99.90;;;;;;5130600;27;19916;-71
2022/02/06 05:27:57;;;;;;;;;;;5.80;99.90;;;;;;5120253;27;19921;-71
2022/02/06 05:30:25;;;;;;;;;;;5.80;99.90;;;;;;5115169;27;19912;-72
2022/02/06 05:32:59;;;;;;;;;;;5.90;99.90;;;;;;5127087;27;19970;-70
2022/02/06 05:35:25;;;;;;;;;;;5.90;99.90;;;;;;5131666;27;20292;-71
2022/02/06 05:37:50;;;;;;;;;;;6.00;99.90;;;;;;5127157;27;20357;-71
2022/02/06 05:40:16;;;;;;;;;;;6.00;99.90;;;;;;5120483;27;19965;-70
2022/02/06 05:42:43;;;;;;;;;;;6.10;99.90;;;;;;5119680;27;19912;-71
2022/02/06 05:45:09;;;;;;;;;;;6.20;99.90;;;;;;5119892;27;19912;-70
2022/02/06 05:47:34;;;;;;;;;;;6.30;99.90;;;;;;5123879;27;19972;-70
2022/02/06 05:50:00;;;;;;;;;;;6.20;99.90;;;;;;5111126;27;19916;-72
2022/02/06 05:52:26;;;;;;;;;;;6.20;99.90;;;;;;5123082;27;19911;-70
2022/02/06 05:54:51;;;;;;;;;;;6.20;99.90;;;;;;5123790;27;19912;-70
2022/02/06 05:57:17;;;;;;;;;;;6.20;99.90;;;;;;5113902;27;19918;-70
2022/02/06 05:59:43;;;;;;;;;;;6.40;99.90;;;;;;5121738;27;20245;-72
2022/02/06 06:02:08;;;;;;;;;;;6.40;99.90;;;;;;5113288;27;19931;-72
2022/02/06 06:04:34;;;;;;;;;;;6.40;99.90;;;;;;5130552;27;19915;-70
2022/02/06 06:07:01;;;;;;;;;;;6.50;99.90;;;;;;5130908;27;19920;-70
2022/02/06 06:09:26;;;;;;;;;;;6.50;99.90;;;;;;5126584;27;20044;-69
2022/02/06 06:11:52;;;;;;;;;;;6.60;99.90;;;;;;5117590;27;19997;-71
2022/02/06 06:14:17;;;;;;;;;;;6.60;99.90;;;;;;5131233;27;19931;-72
2022/02/06 06:16:43;;;;;;;;;;;6.70;99.90;;;;;;5128565;27;19918;-70
2022/02/06 06:19:10;;;;;;;;;;;6.60;99.90;;;;;;5119985;27;19912;-70
2022/02/06 06:21:40;;;;;;;;;;;6.70;99.90;;;;;;5129924;27;19913;-72
2022/02/06 06:24:06;;;;;;;;;;;6.70;99.90;;;;;;5123639;27;19954;-72
2022/02/06 06:26:36;;;;;;;;;;;6.70;99.90;;;;;;5126275;27;20511;-71
2022/02/06 06:29:02;;;;;;;;;;;6.80;99.90;;;;;;5128605;28;20389;-73
2022/02/06 06:31:28;;;;;;;;;;;6.80;99.90;;;;;;5129845;27;19907;-70
2022/02/06 06:33:53;;;;;;;;;;;6.80;99.90;;;;;;5114823;27;19923;-70
2022/02/06 06:36:22;;;;;;;;;;;6.90;99.90;;;;;;5122447;27;19968;-71
2022/02/06 06:38:53;;;;;;;;;;;6.90;99.90;;;;;;5130758;28;19946;-73
2022/02/06 06:41:18;;;;;;;;;;;6.90;99.90;;;;;;5125090;28;20456;-72
2022/02/06 06:43:44;;;;;;;;;;;6.80;99.90;;;;;;5128432;28;19998;-71
2022/02/06 06:46:10;;;;;;;;;;;6.90;99.90;;;;;;5123461;28;20010;-71
2022/02/06 06:48:36;;;;;;;;;;;6.90;99.90;;;;;;5127733;28;19930;-71
2022/02/06 06:51:01;;;;;;;;;;;7.00;99.90;;;;;;5118116;27;20369;-71
2022/02/06 06:53:28;;;;;;;;;;;7.10;99.90;;;;;;5130195;27;19956;-71
2022/02/06 06:56:02;;;;;;;;;;;7.10;99.90;;;;;;5122630;27;19964;-71
2022/02/06 06:58:40;;;;;;;;;;;7.10;99.90;;;;;;5127720;27;19915;-71
2022/02/06 07:03:31;;;;;;;;;;;7.20;99.90;;;;;;5129066;27;20256;-72
2022/02/06 07:06:00;;;;;;;;;;;7.20;99.90;;;;;;5119262;27;20909;-73
2022/02/06 07:08:25;;;;;;;;;;;7.30;99.90;;;;;;5123531;27;19924;-69
2022/02/06 07:10:51;;;;;;;;;;;7.40;99.90;;;;;;5122199;27;19912;-72
2022/02/06 07:13:18;;;;;;;;;;;7.50;99.90;;;;;;5131928;27;19923;-72
2022/02/06 07:15:44;;;;;;;;;;;7.50;99.90;;;;;;5124878;27;19915;-73
2022/02/06 07:18:09;;;;;;;;;;;7.50;99.90;;;;;;5126028;27;19923;-73
2022/02/06 07:20:36;;;;;;;;;;;7.60;99.90;;;;;;5126846;27;19915;-71
2022/02/06 07:23:03;;;;;;;;;;;7.70;99.90;;;;;;5133738;27;19935;-72
2022/02/06 07:25:28;;;;;;;;;;;7.60;99.90;;;;;;5130098;27;19925;-71
2022/02/06 07:27:55;;;;;;;;;;;7.60;99.90;;;;;;5132260;27;20462;-71
2022/02/06 07:30:21;;;;;;;;;;;7.60;99.90;;;;;;5132196;27;19933;-71
2022/02/06 07:32:47;;;;;;;;;;;7.70;99.90;;;;;;5126640;27;19916;-72
2022/02/06 07:35:13;;;;;;;;;;;7.60;99.90;;;;;;5129401;27;19926;-71
2022/02/06 07:37:48;;;;;;;;;;;7.70;99.90;;;;;;5134814;27;19919;-72
2022/02/06 07:40:14;;;;;;;;;;;7.80;99.90;;;;;;5132330;27;20273;-71
2022/02/06 07:42:40;;;;;;;;;;;7.80;99.90;;;;;;5133877;27;19918;-71
2022/02/06 07:45:05;;;;;;;;;;;7.80;99.90;;;;;;5133538;27;19908;-73
2022/02/06 07:47:31;;;;;;;;;;;7.90;99.90;;;;;;5126664;27;19915;-70
2022/02/06 07:50:02;;;;;;;;;;;7.80;99.90;;;;;;5119590;27;19908;-71
2022/02/06 07:52:27;;;;;;;;;;;8.00;99.90;;;;;;5124104;27;19918;-70
2022/02/06 07:54:53;;;;;;;;;;;8.00;99.90;;;;;;5127575;27;19907;-70
2022/02/06 07:57:19;;;;;;;;;;;7.90;99.90;;;;;;5134106;27;19991;-72
2022/02/06 07:59:44;;;;;;;;;;;8.00;99.90;;;;;;5120155;27;20278;-72
2022/02/06 08:02:10;;;;;;;;;;;8.00;99.90;;;;;;5125204;27;19919;-71
2022/02/06 08:04:36;;;;;;;;;;;8.00;99.90;;;;;;5133234;27;19912;-71
2022/02/06 08:07:02;;;;;;;;;;;8.00;99.90;;;;;;5129094;27;19916;-71
2022/02/06 08:09:47;;;;;;;;;;;8.00;99.90;;;;;;5128586;27;20258;-71
2022/02/06 08:12:14;;;;;;;;;;;8.10;99.90;;;;;;5130413;27;19915;-72
2022/02/06 08:14:55;;;;;;;;;;;8.10;99.90;;;;;;5121480;27;20389;-72
2022/02/06 08:17:24;;;;;;;;;;;8.10;99.90;;;;;;5126604;27;21340;-73
2022/02/06 08:19:50;;;;;;;;;;;8.20;99.90;;;;;;5118137;27;20010;-71
2022/02/06 08:22:16;;;;;;;;;;;8.30;99.90;;;;;;5123938;27;19959;-73
2022/02/06 08:24:42;;;;;;;;;;;8.40;99.90;;;;;;5118609;27;20000;-71
2022/02/06 08:27:08;;;;;;;;;;;8.50;99.90;;;;;;5129751;27;19915;-70
2022/02/06 08:29:36;;;;;;;;;;;8.60;99.90;;;;;;5122411;27;19919;-70
2022/02/06 08:32:02;;;;;;;;;;;8.60;99.90;;;;;;5128493;27;20396;-74
2022/02/06 08:34:28;;;;;;;;;;;8.60;99.90;;;;;;5122735;27;20002;-70
2022/02/06 08:36:53;;;;;;;;;;;8.70;99.90;;;;;;5126464;27;19954;-70
2022/02/06 08:39:19;;;;;;;;;;;8.70;99.90;;;;;;5131709;27;19979;-72
2022/02/06 08:41:44;;;;;;;;;;;8.70;99.90;;;;;;5128479;27;19908;-70
2022/02/06 08:44:10;;;;;;;;;;;8.80;99.90;;;;;;5133134;27;20249;-71
2022/02/06 08:46:35;;;;;;;;;;;8.80;99.90;;;;;;5123596;27;19911;-71
2022/02/06 08:49:01;;;;;;;;;;;8.80;99.90;;;;;;5130401;27;20459;-70
2022/02/06 08:51:27;;;;;;;;;;;8.80;99.90;;;;;;5132533;27;19915;-72
2022/02/06 08:53:53;;;;;;;;;;;8.80;99.90;;;;;;5126032;27;19912;-72
2022/02/06 08:56:18;;;;;;;;;;;8.80;99.90;;;;;;5115113;27;20054;-72
2022/02/06 08:58:44;;;;;;;;;;;8.90;99.90;;;;;;5125445;27;19918;-72
2022/02/06 09:01:09;;;;;;;;;;;8.90;99.90;;;;;;5123016;27;20303;-72
2022/02/06 09:03:35;;;;;;;;;;;9.00;99.90;;;;;;5116924;27;19918;-71
2022/02/06 09:06:01;;;;;;;;;;;9.00;99.90;;;;;;5125238;27;19912;-71
2022/02/06 09:08:26;;;;;;;;;;;9.10;99.90;;;;;;5121537;27;19941;-72
2022/02/06 09:10:52;;;;;;;;;;;9.20;99.90;;;;;;5128557;27;19932;-72
2022/02/06 09:13:19;;;;;;;;;;;9.20;99.90;;;;;;5130492;27;19911;-72
2022/02/06 09:15:45;;;;;;;;;;;9.30;99.90;;;;;;5127707;27;19907;-71
2022/02/06 09:18:10;;;;;;;;;;;9.40;99.90;;;;;;5125278;27;20373;-72
2022/02/06 09:20:36;;;;;;;;;;;9.50;99.90;;;;;;5129802;27;19908;-74
2022/02/06 09:23:02;;;;;;;;;;;9.60;99.90;;;;;;5127354;27;19918;-73
2022/02/06 09:25:27;;;;;;;;;;;9.60;99.90;;;;;;5129516;27;20395;-71
2022/02/06 09:27:53;;;;;;;;;;;9.70;99.90;;;;;;5131704;27;19960;-72
2022/02/06 09:30:21;;;;;;;;;;;9.90;99.90;;;;;;5114383;27;20637;-72
2022/02/06 09:35:13;;;;;;;;;;;10.30;99.90;;;;;;5131829;27;20484;-72
2022/02/06 09:37:39;;;;;;;;;;;10.50;99.90;;;;;;5127533;27;19911;-73
2022/02/06 09:40:08;;;;;;;;;;;10.60;99.90;;;;;;5113847;27;19999;-71
2022/02/06 09:42:34;;;;;;;;;;;10.60;99.90;;;;;;5131893;27;19912;-72
2022/02/06 09:45:00;;;;;;;;;;;10.70;99.90;;;;;;5122462;27;19911;-70
2022/02/06 09:47:28;;;;;;;;;;;10.70;99.90;;;;;;5126852;27;19922;-72
2022/02/06 09:49:54;;;;;;;;;;;10.80;99.90;;;;;;5131667;27;19912;-75
2022/02/06 09:52:25;;;;;;;;;;;10.90;99.90;;;;;;5133634;27;19938;-72
2022/02/06 09:54:55;;;;;;;;;;;11.10;99.90;;;;;;5133396;27;20446;-73
2022/02/06 09:57:26;;;;;;;;;;;11.10;99.90;;;;;;5126926;27;19922;-71
2022/02/06 09:59:53;;;;;;;;;;;11.20;99.90;;;;;;5142775;27;19907;-71
2022/02/06 10:02:21;;;;;;;;;;;11.30;99.90;;;;;;5137532;27;20339;-72
2022/02/06 10:04:48;;;;;;;;;;;11.40;99.90;;;;;;5139636;27;20353;-72
2022/02/06 10:07:17;;;;;;;;;;;11.50;99.90;;;;;;5138080;27;19916;-73
2022/02/06 10:09:51;;;;;;;;;;;11.30;99.90;;;;;;5133715;27;20323;-71
2022/02/06 10:12:16;;;;;;;;;;;11.40;99.90;;;;;;5125525;27;20006;-72
2022/02/06 10:14:42;;;;;;;;;;;11.50;99.90;;;;;;5131234;27;20401;-72
2022/02/06 10:17:08;;;;;;;;;;;11.50;99.90;;;;;;5130164;27;20421;-72
2022/02/06 10:19:37;;;;;;;;;;;11.50;99.90;;;;;;5132546;27;19908;-72
2022/02/06 10:22:21;;;;;;;;;;;11.60;99.90;;;;;;5121978;27;19980;-72
2022/02/06 10:24:57;;;;;;;;;;;11.60;99.90;;;;;;5120539;27;19911;-73
2022/02/06 10:27:43;;;;;;;;;;;11.60;99.90;;;;;;5130100;27;19926;-73
2022/02/06 10:30:19;;;;;;;;;;;11.60;99.90;;;;;;5129652;27;19937;-72
2022/02/06 10:32:45;;;;;;;;;;;11.50;99.90;;;;;;5130792;27;19912;-73
2022/02/06 10:35:11;;;;;;;;;;;11.40;99.90;;;;;;5126182;27;19950;-72
2022/02/06 10:37:37;;;;;;;;;;;11.50;99.90;;;;;;5120245;28;19920;-72
2022/02/06 10:40:07;;;;;;;;;;;11.50;99.90;;;;;;5131407;27;20501;-73
2022/02/06 10:42:41;;;;;;;;;;;11.40;99.90;;;;;;5129072;28;19943;-73
2022/02/06 10:45:19;;;;;;;;;;;11.40;99.90;;;;;;5119976;28;20384;-73
2022/02/06 10:47:45;;;;;;;;;;;11.40;99.90;;;;;;5131461;28;19919;-72
2022/02/06 10:50:13;;;;;;;;;;;11.30;99.90;;;;;;5119303;28;19920;-73
2022/02/06 10:52:39;;;;;;;;;;;11.30;99.90;;;;;;5124754;28;19911;-71
2022/02/06 10:55:05;;;;;;;;;;;11.10;99.90;;;;;;5123415;28;19907;-71
2022/02/06 10:57:31;;;;;;;;;;;11.10;99.90;;;;;;5129867;28;19911;-72
2022/02/06 10:59:57;;;;;;;;;;;11.20;99.90;;;;;;5123839;28;19917;-73
2022/02/06 11:02:22;;;;;;;;;;;11.30;99.90;;;;;;5130035;28;19982;-73
2022/02/06 11:05:00;;;;;;;;;;;11.30;99.90;;;;;;5128194;28;20357;-73
2022/02/06 11:07:26;;;;;;;;;;;11.30;99.90;;;;;;5127207;28;19922;-71
2022/02/06 11:10:04;;;;;;;;;;;11.30;99.90;;;;;;5122073;28;19916;-71
2022/02/06 11:12:29;;;;;;;;;;;11.30;99.90;;;;;;5123652;27;19911;-72
2022/02/06 11:15:00;;;;;;;;;;;11.30;99.90;;;;;;5130784;28;19915;-71
2022/02/06 11:17:29;;;;;;;;;;;11.20;99.90;;;;;;5120566;28;20379;-70
2022/02/06 11:20:08;;;;;;;;;;;11.30;99.90;;;;;;5109811;28;19919;-72
2022/02/06 11:22:34;;;;;;;;;;;11.30;99.90;;;;;;5118080;27;19912;-73
2022/02/06 11:25:01;;;;;;;;;;;11.40;99.90;;;;;;5128889;28;19919;-68
2022/02/06 11:27:27;;;;;;;;;;;11.40;99.90;;;;;;5128145;28;20292;-68
2022/02/06 11:29:55;;;;;;;;;;;11.20;99.90;;;;;;5124093;28;19911;-67
2022/02/06 11:32:21;;;;;;;;;;;11.10;99.90;;;;;;5125994;28;19928;-68
2022/02/06 11:34:47;;;;;;;;;;;11.20;99.90;;;;;;5122469;28;19918;-67
2022/02/06 11:43:48;;;;;;;;;;;10.70;99.90;;;;;;5127693;27;19922;-67
2022/02/06 11:45:47;;;;;;;;;;;10.30;99.90;;;;;;5126326;27;20391;-67
2022/02/06 11:48:15;;;;;;;;;;;9.80;99.90;;;;;;5121883;27;19972;-67
2022/02/06 11:50:48;;;;;;;;;;;9.40;99.90;;;;;;5135446;27;19911;-69
2022/02/06 11:53:25;;;;;;;;;;;9.10;99.90;;;;;;5132471;27;19911;-68
2022/02/06 11:55:51;;;;;;;;;;;8.90;99.90;;;;;;5134755;27;20288;-68
2022/02/06 11:58:17;;;;;;;;;;;8.70;99.90;;;;;;5130064;27;19935;-67
2022/02/06 12:00:43;;;;;;;;;;;8.60;99.90;;;;;;5125811;27;20463;-68
2022/02/06 12:03:12;;;;;;;;;;;8.50;99.90;;;;;;5131620;27;19914;-69
2022/02/06 12:05:56;;;;;;;;;;;8.40;99.90;;;;;;5126499;27;19918;-68
2022/02/06 12:08:22;;;;;;;;;;;8.40;99.90;;;;;;5123272;27;19927;-65
2022/02/06 12:10:50;;;;;;;;;;;8.30;99.90;;;;;;5120007;27;19998;-68
2022/02/06 12:13:20;;;;;;;;;;;8.30;99.90;;;;;;5118860;27;20280;-66
2022/02/06 12:15:52;;;;;;;;;;;8.30;99.90;;;;;;5119197;27;19933;-68
2022/02/06 12:18:25;;;;;;;;;;;8.30;99.90;;;;;;5130148;27;20556;-67
2022/02/06 12:20:51;;;;;;;;;;;8.30;99.90;;;;;;5116834;27;19911;-68
2022/02/06 12:23:34;;;;;;;;;;;8.30;99.90;;;;;;5133949;27;19936;-67
2022/02/06 12:26:00;;;;;;;;;;;8.30;99.90;;;;;;5123061;27;20395;-68
2022/02/06 12:28:28;;;;;;;;;;;8.30;99.90;;;;;;5121001;27;19912;-67
2022/02/06 12:30:55;;;;;;;;;;;8.30;99.90;;;;;;5122315;27;19956;-68
2022/02/06 12:33:28;;;;;;;;;;;8.30;99.90;;;;;;5120403;27;19916;-68
2022/02/06 12:38:37;;;;;;;;;;;8.30;99.90;;;;;;5121255;27;19923;-65
2022/02/06 12:41:19;;;;;;;;;;;8.30;99.90;;;;;;5118618;27;19929;-66
2022/02/06 12:43:53;;;;;;;;;;;8.40;99.90;;;;;;5121053;27;19908;-66
2022/02/06 12:46:20;;;;;;;;;;;8.50;99.90;;;;;;5119808;27;20422;-66
2022/02/06 12:48:46;;;;;;;;;;;8.60;99.90;;;;;;5121726;27;19994;-69
2022/02/06 12:51:11;;;;;;;;;;;8.60;99.90;;;;;;5130605;27;20320;-69
2022/02/06 12:53:37;;;;;;;;;;;8.70;99.90;;;;;;5128751;27;19945;-67
2022/02/06 12:56:03;;;;;;;;;;;8.70;99.90;;;;;;5127125;27;19984;-66
2022/02/06 12:58:29;;;;;;;;;;;8.60;99.90;;;;;;5125404;27;20392;-68
2022/02/06 13:00:56;;;;;;;;;;;8.60;99.90;;;;;;5112776;27;20629;-64
2022/02/06 13:03:31;;;;;;;;;;;8.50;99.90;;;;;;5132419;27;19916;-65
2022/02/06 13:06:06;;;;;;;;;;;8.40;99.90;;;;;;5115384;27;20368;-65
2022/02/06 13:08:41;;;;;;;;;;;8.40;99.90;;;;;;5124532;27;19912;-65
2022/02/06 13:11:11;;;;;;;;;;;8.50;99.90;;;;;;5126610;27;19947;-65
2022/02/06 13:18:56;;;;;;;;;;;8.60;99.90;;;;;;5132465;27;19912;-66
2022/02/06 13:24:34;;;;;;;;;;;8.70;99.90;;;;;;5109131;28;19912;-68
2022/02/06 13:29:50;;;;;;;;;;;8.80;99.90;;;;;;5119612;27;19915;-70
2022/02/06 13:32:23;;;;;;;;;;;8.80;99.90;;;;;;5118743;27;20369;-70
2022/02/06 13:35:06;;;;;;;;;;;8.80;99.90;;;;;;5126663;27;19919;-69
2022/02/06 13:37:44;;;;;;;;;;;8.90;99.90;;;;;;5126688;27;19915;-67
2022/02/06 13:40:16;;;;;;;;;;;8.90;99.90;;;;;;5116772;27;19916;-67
2022/02/06 13:43:00;;;;;;;;;;;8.90;99.90;;;;;;5127941;27;19911;-70
2022/02/06 13:45:27;;;;;;;;;;;8.90;99.90;;;;;;5124535;27;20366;-70
2022/02/06 13:47:55;;;;;;;;;;;9.00;99.90;;;;;;5127544;27;19964;-68
2022/02/06 13:50:21;;;;;;;;;;;9.00;99.90;;;;;;5117350;27;19915;-68
2022/02/06 13:52:47;;;;;;;;;;;9.00;99.90;;;;;;5123415;27;19946;-67
2022/02/06 13:55:14;;;;;;;;;;;9.00;99.90;;;;;;5122973;27;19976;-70
2022/02/06 13:57:40;;;;;;;;;;;9.00;99.90;;;;;;5124812;27;20292;-70
2022/02/06 14:00:10;;;;;;;;;;;9.00;99.90;;;;;;5119555;27;19911;-69
2022/02/06 14:02:35;;;;;;;;;;;9.00;99.90;;;;;;5124579;27;19918;-70
2022/02/06 14:05:05;;;;;;;;;;;9.00;99.90;;;;;;5124602;27;20436;-66
2022/02/06 14:07:31;;;;;;;;;;;9.00;99.90;;;;;;5124504;27;19926;-69
2022/02/06 14:12:26;;;;;;;;;;;9.10;99.90;;;;;;5121902;27;19915;-70
2022/02/06 14:14:56;;;;;;;;;;;9.20;99.90;;;;;;5132039;27;20002;-68
2022/02/06 14:17:29;;;;;;;;;;;9.10;99.90;;;;;;5124700;27;19911;-70
2022/02/06 14:19:57;;;;;;;;;;;9.20;99.90;;;;;;5130361;27;19908;-70
2022/02/06 14:22:36;;;;;;;;;;;9.10;99.90;;;;;;5122252;27;20433;-69
2022/02/06 14:25:04;;;;;;;;;;;9.20;99.90;;;;;;5122883;27;19912;-71
2022/02/06 14:27:34;;;;;;;;;;;9.20;99.90;;;;;;5129982;27;19926;-71
2022/02/06 14:30:25;;;;;;;;;;;9.20;99.90;;;;;;5141586;27;20289;-69
2022/02/06 14:33:05;;;;;;;;;;;9.20;99.90;;;;;;5139269;27;19922;-73
2022/02/06 14:35:52;;;;;;;;;;;9.10;99.90;;;;;;5129220;27;19919;-69
2022/02/06 14:41:17;;;;;;;;;;;9.10;99.90;;;;;;5128407;28;20330;-67
2022/02/06 14:43:52;;;;;;;;;;;9.00;99.90;;;;;;5124235;28;20318;-68
2022/02/06 14:46:17;;;;;;;;;;;9.00;99.90;;;;;;5127671;27;19920;-68
2022/02/06 14:48:44;;;;;;;;;;;9.10;99.90;;;;;;5117323;28;19912;-70
2022/02/06 14:51:12;;;;;;;;;;;8.90;99.90;;;;;;5129954;27;19911;-68
2022/02/06 14:53:41;;;;;;;;;;;8.80;99.90;;;;;;5121078;28;19912;-68
2022/02/06 14:56:09;;;;;;;;;;;8.80;99.90;;;;;;5120420;28;19983;-67
2022/02/06 14:58:34;;;;;;;;;;;8.80;99.90;;;;;;5133191;28;19907;-67
2022/02/06 15:01:00;;;;;;;;;;;8.70;99.90;;;;;;5123232;27;19969;-68
2022/02/06 15:03:26;;;;;;;;;;;8.70;99.90;;;;;;5127084;28;19918;-67
2022/02/06 15:05:51;;;;;;;;;;;8.60;99.90;;;;;;5131248;27;19912;-66
2022/02/06 15:08:18;;;;;;;;;;;8.60;99.90;;;;;;5128294;28;19907;-67
2022/02/06 15:10:44;;;;;;;;;;;8.50;99.90;;;;;;5127849;28;19938;-66
2022/02/06 15:13:11;;;;;;;;;;;8.50;99.90;;;;;;5133723;27;19915;-68
2022/02/06 15:15:54;;;;;;;;;;;8.40;99.90;;;;;;5134155;27;20360;-67
2022/02/06 15:18:37;;;;;;;;;;;8.40;99.90;;;;;;5128569;27;19911;-68
2022/02/06 15:21:03;;;;;;;;;;;8.40;99.90;;;;;;5128036;27;19911;-68
2022/02/06 15:23:28;;;;;;;;;;;8.50;99.90;;;;;;5126960;27;19919;-67
2022/02/06 15:25:54;;;;;;;;;;;8.40;99.90;;;;;;5127295;27;19972;-69
2022/02/06 15:28:20;;;;;;;;;;;8.40;99.90;;;;;;5135775;27;19916;-67
2022/02/06 15:30:46;;;;;;;;;;;8.40;99.90;;;;;;5128136;27;20088;-69
2022/02/06 15:33:12;;;;;;;;;;;8.50;99.90;;;;;;5134262;27;19961;-68
2022/02/06 15:35:38;;;;;;;;;;;8.50;99.90;;;;;;5131591;27;20002;-67
2022/02/06 15:38:04;;;;;;;;;;;8.40;99.90;;;;;;5132790;27;20308;-70
2022/02/06 15:40:30;;;;;;;;;;;8.50;99.90;;;;;;5128907;27;19947;-67
2022/02/06 15:42:56;;;;;;;;;;;8.50;99.90;;;;;;5126560;27;19915;-66
2022/02/06 15:45:22;;;;;;;;;;;8.60;99.90;;;;;;5122507;27;20369;-68
2022/02/06 15:47:48;;;;;;;;;;;8.70;99.90;;;;;;5132873;27;19930;-69
2022/02/06 15:50:13;;;;;;;;;;;8.70;99.90;;;;;;5128229;27;19912;-68
2022/02/06 15:52:39;;;;;;;;;;;8.80;99.90;;;;;;5130682;27;19942;-70
2022/02/06 15:55:05;;;;;;;;;;;8.80;99.90;;;;;;5133262;27;19911;-68
2022/02/06 15:57:30;;;;;;;;;;;8.90;99.90;;;;;;5134554;27;19914;-67
2022/02/06 15:59:57;;;;;;;;;;;8.90;99.90;;;;;;5126889;27;19912;-68
2022/02/06 16:02:22;;;;;;;;;;;8.90;99.90;;;;;;5131746;27;20017;-67
2022/02/06 16:04:48;;;;;;;;;;;8.90;99.90;;;;;;5129681;27;19955;-68
2022/02/06 16:07:13;;;;;;;;;;;8.80;99.90;;;;;;5130801;27;20062;-68
2022/02/06 16:09:41;;;;;;;;;;;8.80;99.90;;;;;;5131580;27;19912;-68
2022/02/06 16:12:08;;;;;;;;;;;8.80;99.90;;;;;;5127364;27;19915;-67
2022/02/06 16:14:35;;;;;;;;;;;8.80;99.90;;;;;;5125132;27;20333;-70
2022/02/06 16:17:00;;;;;;;;;;;8.80;99.90;;;;;;5119419;27;19916;-68
2022/02/06 16:19:29;;;;;;;;;;;8.80;99.90;;;;;;5127267;27;19919;-67
2022/02/06 16:21:55;;;;;;;;;;;8.80;99.90;;;;;;5131661;27;19915;-69
2022/02/06 16:24:22;;;;;;;;;;;8.80;99.90;;;;;;5131364;27;19919;-69
2022/02/06 16:26:48;;;;;;;;;;;8.70;99.90;;;;;;5133122;27;19915;-66
2022/02/06 16:29:14;;;;;;;;;;;8.70;99.90;;;;;;5135566;27;19955;-74
2022/02/06 16:31:39;;;;;;;;;;;8.80;99.90;;;;;;5131947;27;19994;-74
2022/02/06 16:34:05;;;;;;;;;;;8.80;99.90;;;;;;5127904;27;19911;-74
2022/02/06 16:36:30;;;;;;;;;;;8.90;99.90;;;;;;5124769;27;19922;-73
2022/02/06 16:38:56;;;;;;;;;;;8.90;99.90;;;;;;5131971;27;19999;-75
2022/02/06 16:41:22;;;;;;;;;;;9.00;99.90;;;;;;5134116;27;19912;-76
2022/02/06 16:43:48;;;;;;;;;;;9.00;99.90;;;;;;5136494;27;20413;-74
2022/02/06 16:46:16;;;;;;;;;;;9.00;99.90;;;;;;5120194;27;19919;-75
2022/02/06 16:48:42;;;;;;;;;;;9.10;99.90;;;;;;5137859;27;19940;-72
2022/02/06 16:51:07;;;;;;;;;;;9.10;99.90;;;;;;5128673;27;19911;-73
2022/02/06 16:53:33;;;;;;;;;;;9.10;99.90;;;;;;5131903;27;19912;-73
2022/02/06 16:56:00;;;;;;;;;;;9.10;99.90;;;;;;5127128;27;20030;-78
2022/02/06 16:58:25;;;;;;;;;;;9.10;99.90;;;;;;5132259;27;19911;-76
2022/02/06 17:00:51;;;;;;;;;;;9.10;99.90;;;;;;5125107;27;20049;-75
2022/02/06 17:03:17;;;;;;;;;;;9.10;99.90;;;;;;5129826;27;19998;-73
2022/02/06 17:05:43;;;;;;;;;;;9.10;99.90;;;;;;5118035;27;20326;-74
2022/02/06 17:08:09;;;;;;;;;;;9.10;99.90;;;;;;5129181;27;20040;-75
2022/02/06 17:10:36;;;;;;;;;;;9.10;99.90;;;;;;5126177;27;20388;-75
2022/02/06 17:13:02;;;;;;;;;;;9.10;99.90;;;;;;5125457;27;20658;-74
2022/02/06 17:15:28;;;;;;;;;;;9.00;99.90;;;;;;5129497;27;19969;-75
2022/02/06 17:17:54;;;;;;;;;;;9.00;99.90;;;;;;5133870;27;19911;-75
2022/02/06 17:20:20;;;;;;;;;;;9.00;99.90;;;;;;5133420;27;20002;-74